sensor_id;sensor_type;location;lat;lon;timestamp;temperature;humidity
14475;DHT22;7323;50.848;4.334;2023-03-21T00:02:03;11.70;51.10
14475;DHT22;7323;50.848;4.334;2023-03-21T00:04:30;11.80;50.80
14475;DHT22;7323;50.848;4.334;2023-03-21T00:06:56;11.80;50.50
14475;DHT22;7323;50.848;4.334;2023-03-21T00:09:22;11.80;49.10
14475;DHT22;7323;50.848;4.334;2023-03-21T00:11:48;11.70;51.10
14475;DHT22;7323;50.848;4.334;2023-03-21T00:14:17;11.60;52.20
14475;DHT22;7323;50.848;4.334;2023-03-21T00:16:51;11.60;52.10
14475;DHT22;7323;50.848;4.334;2023-03-21T00:19:17;11.60;52.80
14475;DHT22;7323;50.848;4.334;2023-03-21T00:21:45;11.70;53.00
14475;DHT22;7323;50.848;4.334;2023-03-21T00:24:12;11.70;51.90
14475;DHT22;7323;50.848;4.334;2023-03-21T00:26:38;11.70;53.00
14475;DHT22;7323;50.848;4.334;2023-03-21T00:29:06;11.70;51.90
14475;DHT22;7323;50.848;4.334;2023-03-21T00:31:32;11.70;52.20
14475;DHT22;7323;50.848;4.334;2023-03-21T00:33:59;11.60;53.20
14475;DHT22;7323;50.848;4.334;2023-03-21T00:36:26;11.70;53.70
14475;DHT22;7323;50.848;4.334;2023-03-21T00:38:53;11.70;53.60
14475;DHT22;7323;50.848;4.334;2023-03-21T00:41:18;11.80;52.70
14475;DHT22;7323;50.848;4.334;2023-03-21T00:43:44;11.70;52.80
14475;DHT22;7323;50.848;4.334;2023-03-21T00:46:11;11.80;52.10
14475;DHT22;7323;50.848;4.334;2023-03-21T00:48:38;11.70;52.40
14475;DHT22;7323;50.848;4.334;2023-03-21T00:51:11;11.90;52.30
14475;DHT22;7323;50.848;4.334;2023-03-21T00:53:38;11.80;50.90
14475;DHT22;7323;50.848;4.334;2023-03-21T00:56:04;11.70;50.00
14475;DHT22;7323;50.848;4.334;2023-03-21T00:58:30;11.90;48.60
14475;DHT22;7323;50.848;4.334;2023-03-21T01:00:56;11.80;48.30
14475;DHT22;7323;50.848;4.334;2023-03-21T01:03:22;11.80;50.20
14475;DHT22;7323;50.848;4.334;2023-03-21T01:05:51;11.70;50.90
14475;DHT22;7323;50.848;4.334;2023-03-21T01:08:27;11.80;50.60
14475;DHT22;7323;50.848;4.334;2023-03-21T01:10:53;11.80;49.70
14475;DHT22;7323;50.848;4.334;2023-03-21T01:13:22;11.80;49.00
14475;DHT22;7323;50.848;4.334;2023-03-21T01:15:51;11.80;47.80
14475;DHT22;7323;50.848;4.334;2023-03-21T01:18:19;11.80;48.10
14475;DHT22;7323;50.848;4.334;2023-03-21T01:20:46;11.70;49.90
14475;DHT22;7323;50.848;4.334;2023-03-21T01:23:13;11.70;50.60
14475;DHT22;7323;50.848;4.334;2023-03-21T01:25:40;11.70;49.50
14475;DHT22;7323;50.848;4.334;2023-03-21T01:28:07;11.80;49.10
14475;DHT22;7323;50.848;4.334;2023-03-21T01:30:34;11.80;48.50
14475;DHT22;7323;50.848;4.334;2023-03-21T01:33:04;11.70;49.40
14475;DHT22;7323;50.848;4.334;2023-03-21T01:35:52;11.80;50.00
14475;DHT22;7323;50.848;4.334;2023-03-21T01:38:17;11.60;50.00
14475;DHT22;7323;50.848;4.334;2023-03-21T01:40:45;11.70;50.20
14475;DHT22;7323;50.848;4.334;2023-03-21T01:49:02;11.70;49.30
14475;DHT22;7323;50.848;4.334;2023-03-21T01:51:34;11.70;48.60
14475;DHT22;7323;50.848;4.334;2023-03-21T01:54:01;11.70;49.00
14475;DHT22;7323;50.848;4.334;2023-03-21T01:56:33;11.70;49.10
14475;DHT22;7323;50.848;4.334;2023-03-21T01:59:08;11.70;48.10
14475;DHT22;7323;50.848;4.334;2023-03-21T02:01:35;11.70;47.50
14475;DHT22;7323;50.848;4.334;2023-03-21T02:04:04;11.70;46.60
14475;DHT22;7323;50.848;4.334;2023-03-21T02:06:45;11.80;46.50
14475;DHT22;7323;50.848;4.334;2023-03-21T02:09:17;11.70;45.30
14475;DHT22;7323;50.848;4.334;2023-03-21T02:11:45;11.80;45.00
14475;DHT22;7323;50.848;4.334;2023-03-21T02:14:16;11.80;44.80
14475;DHT22;7323;50.848;4.334;2023-03-21T02:28:51;12.00;40.60
14475;DHT22;7323;50.848;4.334;2023-03-21T02:37:21;12.20;36.90
14475;DHT22;7323;50.848;4.334;2023-03-21T02:40:02;12.30;36.00
14475;DHT22;7323;50.848;4.334;2023-03-21T02:46:04;12.40;30.10
14475;DHT22;7323;50.848;4.334;2023-03-21T02:48:37;12.40;27.40
14475;DHT22;7323;50.848;4.334;2023-03-21T02:51:04;12.30;29.60
14475;DHT22;7323;50.848;4.334;2023-03-21T02:53:36;12.20;31.90
14475;DHT22;7323;50.848;4.334;2023-03-21T02:56:02;12.20;32.40
14475;DHT22;7323;50.848;4.334;2023-03-21T02:58:31;12.20;31.40
14475;DHT22;7323;50.848;4.334;2023-03-21T03:00:57;12.20;32.50
14475;DHT22;7323;50.848;4.334;2023-03-21T03:03:23;12.10;32.00
14475;DHT22;7323;50.848;4.334;2023-03-21T03:05:52;12.30;31.90
14475;DHT22;7323;50.848;4.334;2023-03-21T03:09:27;12.30;30.60
14475;DHT22;7323;50.848;4.334;2023-03-21T03:11:32;12.30;29.60
14475;DHT22;7323;50.848;4.334;2023-03-21T03:16:37;12.10;31.10
14475;DHT22;7323;50.848;4.334;2023-03-21T03:19:07;12.20;32.70
14475;DHT22;7323;50.848;4.334;2023-03-21T03:21:55;12.20;31.30
14475;DHT22;7323;50.848;4.334;2023-03-21T03:24:36;12.10;31.10
14475;DHT22;7323;50.848;4.334;2023-03-21T03:27:39;12.10;31.60
14475;DHT22;7323;50.848;4.334;2023-03-21T03:30:10;12.10;32.60
14475;DHT22;7323;50.848;4.334;2023-03-21T03:32:41;12.00;34.20
14475;DHT22;7323;50.848;4.334;2023-03-21T03:35:14;12.00;33.20
14475;DHT22;7323;50.848;4.334;2023-03-21T03:37:41;12.00;31.90
14475;DHT22;7323;50.848;4.334;2023-03-21T03:40:24;12.00;31.50
14475;DHT22;7323;50.848;4.334;2023-03-21T03:43:00;12.10;30.60
14475;DHT22;7323;50.848;4.334;2023-03-21T03:45:33;12.10;29.80
14475;DHT22;7323;50.848;4.334;2023-03-21T03:48:23;12.20;27.90
14475;DHT22;7323;50.848;4.334;2023-03-21T03:50:55;12.20;27.60
14475;DHT22;7323;50.848;4.334;2023-03-21T03:55:58;12.10;28.20
14475;DHT22;7323;50.848;4.334;2023-03-21T03:58:25;12.20;28.40
14475;DHT22;7323;50.848;4.334;2023-03-21T04:01:08;12.10;28.90
14475;DHT22;7323;50.848;4.334;2023-03-21T04:03:40;12.10;29.50
14475;DHT22;7323;50.848;4.334;2023-03-21T04:06:08;12.10;29.50
14475;DHT22;7323;50.848;4.334;2023-03-21T04:08:34;12.10;28.70
14475;DHT22;7323;50.848;4.334;2023-03-21T04:11:02;12.30;28.40
14475;DHT22;7323;50.848;4.334;2023-03-21T04:13:29;12.20;27.60
14475;DHT22;7323;50.848;4.334;2023-03-21T04:16:14;12.20;28.80
14475;DHT22;7323;50.848;4.334;2023-03-21T04:18:41;12.10;29.40
14475;DHT22;7323;50.848;4.334;2023-03-21T04:21:11;12.00;30.60
14475;DHT22;7323;50.848;4.334;2023-03-21T04:23:38;12.10;31.90
14475;DHT22;7323;50.848;4.334;2023-03-21T04:26:05;12.10;31.80
14475;DHT22;7323;50.848;4.334;2023-03-21T04:28:31;12.10;32.70
14475;DHT22;7323;50.848;4.334;2023-03-21T04:30:58;12.20;31.50
14475;DHT22;7323;50.848;4.334;2023-03-21T04:33:24;12.10;32.10
14475;DHT22;7323;50.848;4.334;2023-03-21T04:35:53;12.20;33.50
14475;DHT22;7323;50.848;4.334;2023-03-21T04:38:22;12.10;35.00
14475;DHT22;7323;50.848;4.334;2023-03-21T04:40:48;12.10;36.00
14475;DHT22;7323;50.848;4.334;2023-03-21T04:43:14;12.10;37.00
14475;DHT22;7323;50.848;4.334;2023-03-21T04:45:41;12.20;38.20
14475;DHT22;7323;50.848;4.334;2023-03-21T04:48:06;12.20;36.10
14475;DHT22;7323;50.848;4.334;2023-03-21T04:50:34;12.20;37.30
14475;DHT22;7323;50.848;4.334;2023-03-21T04:53:00;12.20;38.70
14475;DHT22;7323;50.848;4.334;2023-03-21T04:55:29;12.30;39.60
14475;DHT22;7323;50.848;4.334;2023-03-21T04:57:56;12.20;39.90
14475;DHT22;7323;50.848;4.334;2023-03-21T05:00:22;12.20;41.70
14475;DHT22;7323;50.848;4.334;2023-03-21T05:02:50;12.30;41.80
14475;DHT22;7323;50.848;4.334;2023-03-21T05:05:15;12.20;42.80
14475;DHT22;7323;50.848;4.334;2023-03-21T05:07:41;12.20;44.70
14475;DHT22;7323;50.848;4.334;2023-03-21T05:10:10;12.20;45.50
14475;DHT22;7323;50.848;4.334;2023-03-21T05:12:37;12.20;46.10
14475;DHT22;7323;50.848;4.334;2023-03-21T05:15:03;12.20;45.70
14475;DHT22;7323;50.848;4.334;2023-03-21T05:17:29;12.20;46.00
14475;DHT22;7323;50.848;4.334;2023-03-21T05:19:59;12.30;46.40
14475;DHT22;7323;50.848;4.334;2023-03-21T05:22:26;12.30;46.10
14475;DHT22;7323;50.848;4.334;2023-03-21T05:24:53;12.30;45.80
14475;DHT22;7323;50.848;4.334;2023-03-21T05:27:21;12.20;46.00
14475;DHT22;7323;50.848;4.334;2023-03-21T05:30:15;12.20;46.50
14475;DHT22;7323;50.848;4.334;2023-03-21T05:32:41;12.20;47.20
14475;DHT22;7323;50.848;4.334;2023-03-21T05:35:08;12.30;46.80
14475;DHT22;7323;50.848;4.334;2023-03-21T05:37:35;12.30;44.90
14475;DHT22;7323;50.848;4.334;2023-03-21T05:40:05;12.30;44.10
14475;DHT22;7323;50.848;4.334;2023-03-21T05:42:31;12.20;45.50
14475;DHT22;7323;50.848;4.334;2023-03-21T05:44:57;12.30;45.50
14475;DHT22;7323;50.848;4.334;2023-03-21T05:47:23;12.30;44.00
14475;DHT22;7323;50.848;4.334;2023-03-21T05:49:49;12.40;43.90
14475;DHT22;7323;50.848;4.334;2023-03-21T05:52:15;12.20;45.50
14475;DHT22;7323;50.848;4.334;2023-03-21T05:54:42;12.30;50.80
14475;DHT22;7323;50.848;4.334;2023-03-21T05:57:10;12.10;53.40
14475;DHT22;7323;50.848;4.334;2023-03-21T05:59:35;12.20;58.60
14475;DHT22;7323;50.848;4.334;2023-03-21T06:02:05;12.00;59.60
14475;DHT22;7323;50.848;4.334;2023-03-21T06:04:32;12.00;63.00
14475;DHT22;7323;50.848;4.334;2023-03-21T06:06:59;12.00;65.50
14475;DHT22;7323;50.848;4.334;2023-03-21T06:09:26;12.00;67.00
14475;DHT22;7323;50.848;4.334;2023-03-21T06:11:54;11.80;70.50
14475;DHT22;7323;50.848;4.334;2023-03-21T06:14:20;11.80;72.80
14475;DHT22;7323;50.848;4.334;2023-03-21T06:16:50;11.80;74.30
14475;DHT22;7323;50.848;4.334;2023-03-21T06:19:23;11.70;77.80
14475;DHT22;7323;50.848;4.334;2023-03-21T06:21:48;11.80;81.40
14475;DHT22;7323;50.848;4.334;2023-03-21T06:24:15;11.70;83.70
14475;DHT22;7323;50.848;4.334;2023-03-21T06:26:42;11.60;85.60
14475;DHT22;7323;50.848;4.334;2023-03-21T06:29:09;11.80;87.10
14475;DHT22;7323;50.848;4.334;2023-03-21T06:31:35;11.70;88.70
14475;DHT22;7323;50.848;4.334;2023-03-21T06:34:03;11.70;88.20
14475;DHT22;7323;50.848;4.334;2023-03-21T06:36:31;11.60;88.40
14475;DHT22;7323;50.848;4.334;2023-03-21T06:39:19;11.60;88.70
14475;DHT22;7323;50.848;4.334;2023-03-21T06:41:48;11.60;88.10
14475;DHT22;7323;50.848;4.334;2023-03-21T06:44:20;11.60;87.60
14475;DHT22;7323;50.848;4.334;2023-03-21T06:46:47;11.60;88.40
14475;DHT22;7323;50.848;4.334;2023-03-21T06:49:13;11.60;88.30
14475;DHT22;7323;50.848;4.334;2023-03-21T06:51:39;11.50;87.30
14475;DHT22;7323;50.848;4.334;2023-03-21T06:54:05;11.80;87.40
14475;DHT22;7323;50.848;4.334;2023-03-21T06:56:32;11.60;86.30
14475;DHT22;7323;50.848;4.334;2023-03-21T06:58:58;11.70;86.10
14475;DHT22;7323;50.848;4.334;2023-03-21T07:01:26;11.90;82.60
14475;DHT22;7323;50.848;4.334;2023-03-21T07:03:55;11.70;81.00
14475;DHT22;7323;50.848;4.334;2023-03-21T07:06:24;11.70;79.10
14475;DHT22;7323;50.848;4.334;2023-03-21T07:08:54;11.90;75.50
14475;DHT22;7323;50.848;4.334;2023-03-21T07:11:22;11.70;73.70
14475;DHT22;7323;50.848;4.334;2023-03-21T07:13:49;11.70;71.20
14475;DHT22;7323;50.848;4.334;2023-03-21T07:16:15;11.70;69.80
14475;DHT22;7323;50.848;4.334;2023-03-21T07:18:42;11.80;71.50
14475;DHT22;7323;50.848;4.334;2023-03-21T07:21:17;11.90;69.30
14475;DHT22;7323;50.848;4.334;2023-03-21T07:23:43;11.80;62.40
14475;DHT22;7323;50.848;4.334;2023-03-21T07:26:09;11.80;61.30
14475;DHT22;7323;50.848;4.334;2023-03-21T07:28:38;11.80;59.90
14475;DHT22;7323;50.848;4.334;2023-03-21T07:31:31;11.90;58.90
14475;DHT22;7323;50.848;4.334;2023-03-21T07:34:00;11.90;56.60
14475;DHT22;7323;50.848;4.334;2023-03-21T07:36:27;12.00;54.90
14475;DHT22;7323;50.848;4.334;2023-03-21T07:38:53;12.00;52.20
14475;DHT22;7323;50.848;4.334;2023-03-21T07:41:18;11.90;50.50
14475;DHT22;7323;50.848;4.334;2023-03-21T07:43:45;11.90;50.90
14475;DHT22;7323;50.848;4.334;2023-03-21T07:46:11;11.90;50.00
14475;DHT22;7323;50.848;4.334;2023-03-21T07:48:39;11.90;48.90
14475;DHT22;7323;50.848;4.334;2023-03-21T07:51:05;11.90;48.60
14475;DHT22;7323;50.848;4.334;2023-03-21T07:53:31;11.90;48.80
14475;DHT22;7323;50.848;4.334;2023-03-21T07:55:57;11.90;48.90
14475;DHT22;7323;50.848;4.334;2023-03-21T07:58:23;11.90;49.50
14475;DHT22;7323;50.848;4.334;2023-03-21T08:00:52;11.90;48.80
14475;DHT22;7323;50.848;4.334;2023-03-21T08:03:21;11.90;48.40
14475;DHT22;7323;50.848;4.334;2023-03-21T08:05:48;12.00;47.10
14475;DHT22;7323;50.848;4.334;2023-03-21T08:08:14;12.00;47.10
14475;DHT22;7323;50.848;4.334;2023-03-21T08:10:44;11.90;47.90
14475;DHT22;7323;50.848;4.334;2023-03-21T08:13:10;12.00;47.90
14475;DHT22;7323;50.848;4.334;2023-03-21T08:15:36;12.00;47.30
14475;DHT22;7323;50.848;4.334;2023-03-21T08:18:02;12.10;46.30
14475;DHT22;7323;50.848;4.334;2023-03-21T08:20:27;12.10;45.60
14475;DHT22;7323;50.848;4.334;2023-03-21T08:22:54;12.20;45.70
14475;DHT22;7323;50.848;4.334;2023-03-21T08:25:21;12.20;45.40
14475;DHT22;7323;50.848;4.334;2023-03-21T08:27:48;12.20;46.10
14475;DHT22;7323;50.848;4.334;2023-03-21T08:30:41;12.20;46.10
14475;DHT22;7323;50.848;4.334;2023-03-21T08:33:10;12.30;44.20
14475;DHT22;7323;50.848;4.334;2023-03-21T08:35:38;12.30;44.00
14475;DHT22;7323;50.848;4.334;2023-03-21T08:38:09;12.30;44.50
14475;DHT22;7323;50.848;4.334;2023-03-21T08:40:35;12.30;43.80
14475;DHT22;7323;50.848;4.334;2023-03-21T08:43:01;12.40;43.00
14475;DHT22;7323;50.848;4.334;2023-03-21T08:45:27;12.30;40.50
14475;DHT22;7323;50.848;4.334;2023-03-21T08:47:54;12.30;39.70
14475;DHT22;7323;50.848;4.334;2023-03-21T08:52:56;12.40;38.10
14475;DHT22;7323;50.848;4.334;2023-03-21T08:55:24;12.60;37.00
14475;DHT22;7323;50.848;4.334;2023-03-21T08:57:50;12.60;33.00
14475;DHT22;7323;50.848;4.334;2023-03-21T09:00:16;12.60;30.20
14475;DHT22;7323;50.848;4.334;2023-03-21T09:02:44;12.60;28.60
14475;DHT22;7323;50.848;4.334;2023-03-21T09:05:10;12.70;28.20
14475;DHT22;7323;50.848;4.334;2023-03-21T09:07:38;12.80;26.90
14475;DHT22;7323;50.848;4.334;2023-03-21T09:10:06;12.70;26.20
14475;DHT22;7323;50.848;4.334;2023-03-21T09:12:33;12.80;24.00
14475;DHT22;7323;50.848;4.334;2023-03-21T09:15:01;12.90;21.20
14475;DHT22;7323;50.848;4.334;2023-03-21T09:17:29;12.90;19.50
14475;DHT22;7323;50.848;4.334;2023-03-21T09:20:21;12.80;19.90
14475;DHT22;7323;50.848;4.334;2023-03-21T09:22:54;12.80;19.80
14475;DHT22;7323;50.848;4.334;2023-03-21T09:25:34;12.70;18.30
14475;DHT22;7323;50.848;4.334;2023-03-21T09:28:03;12.80;18.00
14475;DHT22;7323;50.848;4.334;2023-03-21T09:30:34;12.80;18.20
14475;DHT22;7323;50.848;4.334;2023-03-21T09:33:04;12.80;16.20
14475;DHT22;7323;50.848;4.334;2023-03-21T09:35:49;12.80;14.70
14475;DHT22;7323;50.848;4.334;2023-03-21T09:38:18;12.90;14.60
14475;DHT22;7323;50.848;4.334;2023-03-21T09:41:10;13.10;13.60
14475;DHT22;7323;50.848;4.334;2023-03-21T09:43:54;13.00;10.70
14475;DHT22;7323;50.848;4.334;2023-03-21T09:46:57;13.00;11.40
14475;DHT22;7323;50.848;4.334;2023-03-21T09:49:40;13.10;12.30
14475;DHT22;7323;50.848;4.334;2023-03-21T09:52:22;13.30;6.20
14475;DHT22;7323;50.848;4.334;2023-03-21T09:54:49;13.40;1.00
14475;DHT22;7323;50.848;4.334;2023-03-21T09:57:31;13.40;1.00
14475;DHT22;7323;50.848;4.334;2023-03-21T10:00:03;13.40;1.00
14475;DHT22;7323;50.848;4.334;2023-03-21T10:02:37;13.40;1.00
14475;DHT22;7323;50.848;4.334;2023-03-21T10:05:16;13.40;1.00
14475;DHT22;7323;50.848;4.334;2023-03-21T10:07:52;13.40;1.00
14475;DHT22;7323;50.848;4.334;2023-03-21T10:10:28;13.40;1.00
14475;DHT22;7323;50.848;4.334;2023-03-21T10:12:56;13.60;1.00
14475;DHT22;7323;50.848;4.334;2023-03-21T10:15:24;13.50;1.00
14475;DHT22;7323;50.848;4.334;2023-03-21T10:17:59;13.50;1.00
14475;DHT22;7323;50.848;4.334;2023-03-21T10:20:30;13.40;1.00
14475;DHT22;7323;50.848;4.334;2023-03-21T10:22:59;13.30;1.00
14475;DHT22;7323;50.848;4.334;2023-03-21T10:25:39;13.40;1.00
14475;DHT22;7323;50.848;4.334;2023-03-21T10:28:06;13.40;1.00
14475;DHT22;7323;50.848;4.334;2023-03-21T10:33:51;13.60;1.00
14475;DHT22;7323;50.848;4.334;2023-03-21T10:36:28;13.50;1.00
14475;DHT22;7323;50.848;4.334;2023-03-21T10:41:27;13.80;1.00
14475;DHT22;7323;50.848;4.334;2023-03-21T10:44:17;14.00;1.00
14475;DHT22;7323;50.848;4.334;2023-03-21T10:50:15;14.00;1.00
14475;DHT22;7323;50.848;4.334;2023-03-21T10:52:48;14.10;1.00
14475;DHT22;7323;50.848;4.334;2023-03-21T10:55:32;14.10;1.00
14475;DHT22;7323;50.848;4.334;2023-03-21T10:58:02;14.30;1.00
14475;DHT22;7323;50.848;4.334;2023-03-21T11:00:39;14.60;1.00
14475;DHT22;7323;50.848;4.334;2023-03-21T11:03:31;14.70;1.00
14475;DHT22;7323;50.848;4.334;2023-03-21T11:09:22;14.50;1.00
14475;DHT22;7323;50.848;4.334;2023-03-21T11:11:52;14.40;1.00
14475;DHT22;7323;50.848;4.334;2023-03-21T11:14:42;14.30;1.00
14475;DHT22;7323;50.848;4.334;2023-03-21T11:19:48;14.20;1.00
14475;DHT22;7323;50.848;4.334;2023-03-21T11:22:15;14.20;1.00
14475;DHT22;7323;50.848;4.334;2023-03-21T11:24:45;14.30;1.00
14475;DHT22;7323;50.848;4.334;2023-03-21T11:27:13;14.20;1.00
14475;DHT22;7323;50.848;4.334;2023-03-21T11:29:45;14.10;1.00
14475;DHT22;7323;50.848;4.334;2023-03-21T11:32:34;14.00;1.00
14475;DHT22;7323;50.848;4.334;2023-03-21T11:38:31;14.20;1.00
14475;DHT22;7323;50.848;4.334;2023-03-21T11:41:00;14.20;1.00
14475;DHT22;7323;50.848;4.334;2023-03-21T11:43:39;14.20;1.00
14475;DHT22;7323;50.848;4.334;2023-03-21T11:46:12;14.20;1.00
14475;DHT22;7323;50.848;4.334;2023-03-21T11:48:43;14.30;1.00
14475;DHT22;7323;50.848;4.334;2023-03-21T11:54:55;14.50;1.00
14475;DHT22;7323;50.848;4.334;2023-03-21T11:57:57;14.50;1.00
14475;DHT22;7323;50.848;4.334;2023-03-21T12:00:34;14.60;1.00
14475;DHT22;7323;50.848;4.334;2023-03-21T12:06:01;14.60;1.00
14475;DHT22;7323;50.848;4.334;2023-03-21T12:11:36;14.70;1.00
14475;DHT22;7323;50.848;4.334;2023-03-21T12:23:11;14.30;1.00
14475;DHT22;7323;50.848;4.334;2023-03-21T12:26:18;14.30;1.00
14475;DHT22;7323;50.848;4.334;2023-03-21T12:35:20;14.60;1.00
14475;DHT22;7323;50.848;4.334;2023-03-21T12:41:15;14.60;1.00
14475;DHT22;7323;50.848;4.334;2023-03-21T12:49:21;14.90;1.00
14475;DHT22;7323;50.848;4.334;2023-03-21T12:52:21;14.80;1.00
14475;DHT22;7323;50.848;4.334;2023-03-21T12:55:00;14.80;1.00
14475;DHT22;7323;50.848;4.334;2023-03-21T12:57:31;14.80;1.00
14475;DHT22;7323;50.848;4.334;2023-03-21T13:00:11;15.00;1.00
14475;DHT22;7323;50.848;4.334;2023-03-21T13:02:59;14.80;1.00
14475;DHT22;7323;50.848;4.334;2023-03-21T13:05:34;14.80;1.00
14475;DHT22;7323;50.848;4.334;2023-03-21T13:11:04;15.00;1.00
14475;DHT22;7323;50.848;4.334;2023-03-21T13:16:52;15.10;1.00
14475;DHT22;7323;50.848;4.334;2023-03-21T13:22:06;15.10;1.00
14475;DHT22;7323;50.848;4.334;2023-03-21T13:24:49;15.10;1.00
14475;DHT22;7323;50.848;4.334;2023-03-21T13:27:31;15.00;1.00
14475;DHT22;7323;50.848;4.334;2023-03-21T13:32:44;15.10;1.00
14475;DHT22;7323;50.848;4.334;2023-03-21T13:35:32;15.10;1.00
14475;DHT22;7323;50.848;4.334;2023-03-21T13:40:59;15.20;1.00
14475;DHT22;7323;50.848;4.334;2023-03-21T13:43:54;15.30;1.00
14475;DHT22;7323;50.848;4.334;2023-03-21T13:46:34;15.20;1.00
14475;DHT22;7323;50.848;4.334;2023-03-21T13:56:49;15.10;1.00
14475;DHT22;7323;50.848;4.334;2023-03-21T13:59:38;15.10;1.00
14475;DHT22;7323;50.848;4.334;2023-03-21T14:02:18;15.00;1.00
14475;DHT22;7323;50.848;4.334;2023-03-21T14:04:49;14.90;1.00
14475;DHT22;7323;50.848;4.334;2023-03-21T14:07:34;14.90;1.00
14475;DHT22;7323;50.848;4.334;2023-03-21T14:10:05;15.00;1.00
14475;DHT22;7323;50.848;4.334;2023-03-21T14:12:40;15.10;1.00
14475;DHT22;7323;50.848;4.334;2023-03-21T14:15:36;14.90;1.00
14475;DHT22;7323;50.848;4.334;2023-03-21T14:18:04;14.80;1.00
14475;DHT22;7323;50.848;4.334;2023-03-21T14:20:34;14.90;1.00
14475;DHT22;7323;50.848;4.334;2023-03-21T14:23:14;14.70;2.30
14475;DHT22;7323;50.848;4.334;2023-03-21T14:26:02;14.60;7.20
14475;DHT22;7323;50.848;4.334;2023-03-21T14:28:33;14.60;9.70
14475;DHT22;7323;50.848;4.334;2023-03-21T14:31:02;14.50;10.90
14475;DHT22;7323;50.848;4.334;2023-03-21T14:33:35;14.40;16.00
14475;DHT22;7323;50.848;4.334;2023-03-21T14:36:28;14.40;17.70
14475;DHT22;7323;50.848;4.334;2023-03-21T14:39:30;14.30;21.80
14475;DHT22;7323;50.848;4.334;2023-03-21T14:42:10;14.20;27.20
14475;DHT22;7323;50.848;4.334;2023-03-21T14:44:40;14.10;31.80
14475;DHT22;7323;50.848;4.334;2023-03-21T14:47:07;14.00;37.70
14475;DHT22;7323;50.848;4.334;2023-03-21T14:49:36;13.90;43.00
14475;DHT22;7323;50.848;4.334;2023-03-21T14:52:28;14.00;45.60
14475;DHT22;7323;50.848;4.334;2023-03-21T14:54:55;14.00;49.10
14475;DHT22;7323;50.848;4.334;2023-03-21T14:57:26;14.00;51.70
14475;DHT22;7323;50.848;4.334;2023-03-21T15:00:00;14.00;50.60
14475;DHT22;7323;50.848;4.334;2023-03-21T15:02:38;14.10;49.40
14475;DHT22;7323;50.848;4.334;2023-03-21T15:05:17;14.20;49.80
14475;DHT22;7323;50.848;4.334;2023-03-21T15:08:01;14.10;50.00
14475;DHT22;7323;50.848;4.334;2023-03-21T15:10:30;14.20;49.90
14475;DHT22;7323;50.848;4.334;2023-03-21T15:13:01;14.30;50.40
14475;DHT22;7323;50.848;4.334;2023-03-21T15:15:37;14.30;49.90
14475;DHT22;7323;50.848;4.334;2023-03-21T15:18:06;14.10;51.80
14475;DHT22;7323;50.848;4.334;2023-03-21T15:20:34;14.30;51.10
14475;DHT22;7323;50.848;4.334;2023-03-21T15:23:26;14.20;52.50
14475;DHT22;7323;50.848;4.334;2023-03-21T15:26:00;14.10;57.20
14475;DHT22;7323;50.848;4.334;2023-03-21T15:28:27;14.10;59.50
14475;DHT22;7323;50.848;4.334;2023-03-21T15:30:53;14.00;60.60
14475;DHT22;7323;50.848;4.334;2023-03-21T15:33:23;14.00;59.80
14475;DHT22;7323;50.848;4.334;2023-03-21T15:35:55;14.30;56.70
14475;DHT22;7323;50.848;4.334;2023-03-21T15:38:41;14.40;56.70
14475;DHT22;7323;50.848;4.334;2023-03-21T15:44:12;14.10;60.70
14475;DHT22;7323;50.848;4.334;2023-03-21T15:46:45;14.00;65.10
14475;DHT22;7323;50.848;4.334;2023-03-21T15:51:58;13.90;72.70
14475;DHT22;7323;50.848;4.334;2023-03-21T15:54:30;14.00;74.70
14475;DHT22;7323;50.848;4.334;2023-03-21T15:56:59;13.90;80.30
14475;DHT22;7323;50.848;4.334;2023-03-21T15:59:32;13.80;84.30
14475;DHT22;7323;50.848;4.334;2023-03-21T16:02:01;13.90;84.50
14475;DHT22;7323;50.848;4.334;2023-03-21T16:04:30;13.80;87.00
14475;DHT22;7323;50.848;4.334;2023-03-21T16:07:14;13.90;89.00
14475;DHT22;7323;50.848;4.334;2023-03-21T16:09:46;13.90;89.60
14475;DHT22;7323;50.848;4.334;2023-03-21T16:12:13;14.00;90.00
14475;DHT22;7323;50.848;4.334;2023-03-21T16:14:43;13.90;90.40
14475;DHT22;7323;50.848;4.334;2023-03-21T16:17:32;14.00;90.70
14475;DHT22;7323;50.848;4.334;2023-03-21T16:20:10;13.90;91.50
14475;DHT22;7323;50.848;4.334;2023-03-21T16:22:38;13.90;90.60
14475;DHT22;7323;50.848;4.334;2023-03-21T16:25:05;14.00;91.50
14475;DHT22;7323;50.848;4.334;2023-03-21T16:27:31;14.00;90.50
14475;DHT22;7323;50.848;4.334;2023-03-21T16:30:00;14.10;88.70
14475;DHT22;7323;50.848;4.334;2023-03-21T16:32:27;14.20;89.70
14475;DHT22;7323;50.848;4.334;2023-03-21T16:34:57;15.00;74.70
14475;DHT22;7323;50.848;4.334;2023-03-21T16:37:38;15.10;66.20
14475;DHT22;7323;50.848;4.334;2023-03-21T16:40:33;16.10;52.50
14475;DHT22;7323;50.848;4.334;2023-03-21T16:43:08;17.10;28.70
14475;DHT22;7323;50.848;4.334;2023-03-21T16:45:50;17.30;13.80
14475;DHT22;7323;50.848;4.334;2023-03-21T16:48:16;16.90;18.80
14475;DHT22;7323;50.848;4.334;2023-03-21T16:50:45;17.20;12.70
14475;DHT22;7323;50.848;4.334;2023-03-21T16:53:12;17.30;4.30
14475;DHT22;7323;50.848;4.334;2023-03-21T16:55:38;16.80;6.40
14475;DHT22;7323;50.848;4.334;2023-03-21T16:58:05;16.10;19.10
14475;DHT22;7323;50.848;4.334;2023-03-21T17:00:32;15.50;31.30
14475;DHT22;7323;50.848;4.334;2023-03-21T17:03:07;15.00;38.10
14475;DHT22;7323;50.848;4.334;2023-03-21T17:05:46;14.80;45.10
14475;DHT22;7323;50.848;4.334;2023-03-21T17:08:14;14.60;49.60
14475;DHT22;7323;50.848;4.334;2023-03-21T17:10:46;14.60;54.20
14475;DHT22;7323;50.848;4.334;2023-03-21T17:13:11;14.70;51.30
14475;DHT22;7323;50.848;4.334;2023-03-21T17:15:37;14.70;50.40
14475;DHT22;7323;50.848;4.334;2023-03-21T17:18:05;14.70;51.30
14475;DHT22;7323;50.848;4.334;2023-03-21T17:20:34;14.60;50.20
14475;DHT22;7323;50.848;4.334;2023-03-21T17:23:05;14.50;52.70
14475;DHT22;7323;50.848;4.334;2023-03-21T17:25:33;14.50;53.60
14475;DHT22;7323;50.848;4.334;2023-03-21T17:28:00;14.50;52.60
14475;DHT22;7323;50.848;4.334;2023-03-21T17:30:36;14.40;53.30
14475;DHT22;7323;50.848;4.334;2023-03-21T17:33:07;14.30;54.80
14475;DHT22;7323;50.848;4.334;2023-03-21T17:35:34;14.40;57.10
14475;DHT22;7323;50.848;4.334;2023-03-21T17:38:05;14.20;58.30
14475;DHT22;7323;50.848;4.334;2023-03-21T17:40:34;14.30;59.60
14475;DHT22;7323;50.848;4.334;2023-03-21T17:43:15;14.20;59.80
14475;DHT22;7323;50.848;4.334;2023-03-21T17:45:44;14.20;60.90
14475;DHT22;7323;50.848;4.334;2023-03-21T17:48:11;14.30;61.20
14475;DHT22;7323;50.848;4.334;2023-03-21T17:50:38;14.10;61.10
14475;DHT22;7323;50.848;4.334;2023-03-21T17:53:05;14.10;60.40
14475;DHT22;7323;50.848;4.334;2023-03-21T17:55:37;14.30;59.50
14475;DHT22;7323;50.848;4.334;2023-03-21T17:58:10;14.10;60.70
14475;DHT22;7323;50.848;4.334;2023-03-21T18:00:40;14.10;62.40
14475;DHT22;7323;50.848;4.334;2023-03-21T18:03:09;14.00;62.10
14475;DHT22;7323;50.848;4.334;2023-03-21T18:05:35;13.90;63.50
14475;DHT22;7323;50.848;4.334;2023-03-21T18:08:05;13.90;65.30
14475;DHT22;7323;50.848;4.334;2023-03-21T18:10:38;13.80;64.80
14475;DHT22;7323;50.848;4.334;2023-03-21T18:13:05;13.70;66.70
14475;DHT22;7323;50.848;4.334;2023-03-21T18:15:31;13.70;67.80